Clairmont, Canada
Current Conditions -  °F | °C
As of 1:00 PM on Monday 24 Nov 2014 (Local Time) from CYQU Reporting Station
Overcast Overcast  
Wind Chill:   Ceiling: 8000
Heat Index: 14°   Visibility: 15mi
Dew Point: 12°   Wind: 5mph
Humidity: 93%   Direction: 330°NNW
Pressure: 29.83"   Gusts: NA
Location:  55.24°N, 118.78°W
Report Text: CYQU 242000Z 33004KT 15SM FEW003 BKN080 OVC110 M10/M11 A2983 RMK SF1AS6AC1 SLP147
Loading
Personal Weather Stations






























Interactive Weather Map New forecast layout! Learn more

10-Day Weather Forecast

Advertisements
Track Severe Weather on mobile